Terminal Aerodrome Forecast
Issued by NWS Mt. Holly, NJ

Home | Current Version | Previous Version | Text Only | Print | Product List | Glossary On
Versions: 1 2 3 4 5 6 7 8 9 10 11 12 13 14 15 16 17 18 19 20 21 22 23
000
FTUS41 KPHI 241134
TAFILG
TAF
KILG 241134Z 2412/2512 06005KT P6SM VCSH OVC090
     FM241600 07009KT P6SM OVC080
     FM241800 07011KT P6SM -SHRA OVC060
     FM242200 07011KT 6SM -RA BR OVC035
     FM250100 07013KT 6SM -RA BR OVC015
     FM250400 06014G21KT 5SM -RA BR OVC008=

USA.gov is the U.S. government's official web portal to all federal, state and local government web resources and services.